Time;durP1;ratioP1;P1;durP2;ratioP2;P2;SDS_P1;SDS_P2;PMS_P1;PMS_P2;Temp;Humidity;BMP_temperature;BMP_pressure;BME280_temperature;BME280_humidity;BME280_pressure;Samples;Min_cycle;Max_cycle;Signal;HPM_P1;HPM_P2
2021/07/04 00:02:05;;;;;;;19.80;5.35;;;15.60;80.30;;;;;;6092072;23;20334;-65
2021/07/04 00:04:31;;;;;;;20.92;5.45;;;15.60;80.30;;;;;;6093760;23;20002;-66
2021/07/04 00:06:58;;;;;;;17.60;5.88;;;15.60;80.30;;;;;;6094000;23;20455;-66
2021/07/04 00:09:25;;;;;;;19.33;5.00;;;15.60;80.30;;;;;;6093872;23;20015;-65
2021/07/04 00:11:52;;;;;;;18.92;5.78;;;15.60;80.30;;;;;;6094686;23;20447;-66
2021/07/04 00:14:18;;;;;;;19.45;5.80;;;15.60;80.30;;;;;;6093697;23;20077;-66
2021/07/04 00:16:45;;;;;;;23.15;5.63;;;15.60;80.20;;;;;;6094503;23;20444;-66
2021/07/04 00:19:14;;;;;;;12.38;5.40;;;15.60;80.20;;;;;;6093307;23;20094;-66
2021/07/04 00:21:40;;;;;;;15.23;5.80;;;15.60;80.10;;;;;;6094617;23;20030;-66
2021/07/04 00:24:08;;;;;;;24.02;5.88;;;15.50;80.00;;;;;;6093811;23;20002;-66
2021/07/04 00:26:34;;;;;;;13.73;5.03;;;15.60;80.00;;;;;;6094211;23;20514;-66
2021/07/04 00:29:01;;;;;;;16.73;5.10;;;15.60;80.00;;;;;;6094485;23;20323;-66
2021/07/04 00:31:27;;;;;;;18.75;5.82;;;15.50;79.90;;;;;;6093456;23;20026;-66
2021/07/04 00:33:54;;;;;;;13.98;5.53;;;15.50;79.80;;;;;;6094338;23;20024;-66
2021/07/04 00:36:21;;;;;;;20.85;6.35;;;15.50;79.80;;;;;;6093130;23;20097;-66
2021/07/04 00:38:47;;;;;;;18.17;5.93;;;15.50;79.80;;;;;;6094268;23;20009;-66
2021/07/04 00:41:14;;;;;;;19.67;6.07;;;15.50;79.80;;;;;;6093460;23;20009;-66
2021/07/04 00:43:42;;;;;;;13.68;4.72;;;15.50;79.90;;;;;;6094188;23;20372;-66
2021/07/04 00:46:09;;;;;;;13.45;5.15;;;15.50;79.80;;;;;;6093933;23;20002;-66
2021/07/04 00:48:36;;;;;;;17.88;4.50;;;15.50;79.90;;;;;;6093323;23;20002;-66
2021/07/04 00:51:03;;;;;;;16.83;5.00;;;15.50;79.90;;;;;;6094734;23;20009;-66
2021/07/04 00:53:30;;;;;;;12.80;5.38;;;15.50;79.90;;;;;;6092844;23;20085;-66
2021/07/04 00:55:56;;;;;;;15.70;4.70;;;15.50;80.00;;;;;;6094171;23;20046;-66
2021/07/04 00:58:23;;;;;;;11.70;5.05;;;15.50;80.00;;;;;;6092898;23;19999;-66
2021/07/04 01:00:51;;;;;;;15.68;6.30;;;15.50;80.10;;;;;;6094228;23;20013;-65
2021/07/04 01:03:17;;;;;;;19.13;5.00;;;15.50;80.20;;;;;;6093583;23;20003;-65
2021/07/04 01:05:44;;;;;;;17.95;5.72;;;15.50;80.30;;;;;;6093625;23;20022;-64
2021/07/04 01:08:11;;;;;;;15.90;4.68;;;15.50;80.40;;;;;;6094286;23;20009;-65
2021/07/04 01:10:39;;;;;;;12.27;3.90;;;15.50;80.50;;;;;;6092537;23;20343;-64
2021/07/04 01:13:07;;;;;;;21.38;5.35;;;15.50;80.60;;;;;;6094468;23;20335;-64
2021/07/04 01:15:34;;;;;;;19.20;5.85;;;15.50;80.70;;;;;;6092611;23;20032;-65
2021/07/04 01:18:05;;;;;;;15.32;5.13;;;15.50;80.80;;;;;;6094058;23;20003;-64
2021/07/04 01:20:34;;;;;;;18.55;4.65;;;15.50;80.90;;;;;;6093279;23;19999;-64
2021/07/04 01:23:09;;;;;;;22.92;5.57;;;15.50;81.00;;;;;;6093780;23;20010;-64
2021/07/04 01:25:45;;;;;;;13.82;4.93;;;15.50;81.10;;;;;;6094018;23;20009;-65
2021/07/04 01:28:13;;;;;;;15.07;5.10;;;15.50;81.10;;;;;;6093039;23;19998;-64
2021/07/04 01:30:40;;;;;;;21.05;7.40;;;15.50;81.20;;;;;;6093890;23;20423;-65
2021/07/04 01:33:07;;;;;;;21.58;6.85;;;15.50;81.20;;;;;;6092666;23;20006;-64
2021/07/04 01:35:33;;;;;;;16.67;6.47;;;15.60;81.30;;;;;;6093638;23;20025;-65
2021/07/04 01:38:00;;;;;;;21.65;8.60;;;15.50;81.20;;;;;;6093730;23;20054;-65
2021/07/04 01:40:27;;;;;;;22.48;7.10;;;15.50;81.10;;;;;;6093054;23;19986;-65
2021/07/04 01:42:54;;;;;;;20.33;6.65;;;15.50;81.20;;;;;;6093653;23;20009;-64
2021/07/04 01:45:22;;;;;;;20.40;6.43;;;15.50;81.20;;;;;;6092471;23;19999;-65
2021/07/04 01:47:50;;;;;;;22.88;7.88;;;15.50;81.10;;;;;;6093717;23;20006;-65
2021/07/04 01:50:19;;;;;;;19.40;7.32;;;15.50;81.70;;;;;;6092691;23;20003;-65
2021/07/04 01:52:46;;;;;;;22.20;6.43;;;15.50;81.10;;;;;;6094115;23;20465;-65
2021/07/04 01:55:15;;;;;;;14.32;6.32;;;15.50;81.00;;;;;;6093082;23;20063;-65
2021/07/04 01:57:42;;;;;;;16.33;6.90;;;15.50;81.00;;;;;;6093159;23;20014;-65
2021/07/04 02:00:15;;;;;;;18.63;6.45;;;15.50;80.90;;;;;;6093995;23;20419;-65
2021/07/04 02:02:44;;;;;;;21.92;6.68;;;15.50;80.90;;;;;;6092439;23;20446;-65
2021/07/04 02:05:11;;;;;;;21.27;6.90;;;15.50;80.90;;;;;;6093687;23;19998;-65
2021/07/04 02:07:37;;;;;;;20.30;7.38;;;15.50;80.90;;;;;;6092712;23;20026;-65
2021/07/04 02:10:06;;;;;;;15.90;6.00;;;15.50;80.90;;;;;;6093603;23;20055;-65
2021/07/04 02:12:33;;;;;;;19.13;7.53;;;15.40;80.90;;;;;;6093055;23;20025;-65
2021/07/04 02:15:00;;;;;;;23.40;8.43;;;15.40;80.90;;;;;;6092992;23;20009;-65
2021/07/04 02:17:29;;;;;;;15.45;8.23;;;15.40;80.90;;;;;;6093712;23;20322;-65
2021/07/04 02:19:56;;;;;;;18.33;6.32;;;15.40;80.90;;;;;;6092762;23;20033;-65
2021/07/04 02:22:22;;;;;;;16.98;6.50;;;15.40;80.80;;;;;;6093632;23;20058;-65
2021/07/04 02:24:49;;;;;;;21.00;6.03;;;15.40;80.90;;;;;;6092566;23;19998;-65
2021/07/04 02:27:15;;;;;;;18.67;5.53;;;15.40;80.90;;;;;;6093626;23;20007;-65
2021/07/04 02:29:42;;;;;;;18.73;7.55;;;15.40;80.90;;;;;;6093014;23;20006;-65
2021/07/04 02:32:08;;;;;;;25.15;5.70;;;15.40;81.00;;;;;;6093242;23;20002;-65
2021/07/04 02:34:35;;;;;;;20.77;5.63;;;15.40;81.00;;;;;;6093399;23;19998;-65
2021/07/04 02:37:01;;;;;;;16.38;6.55;;;15.40;80.90;;;;;;6092504;23;20021;-65
2021/07/04 02:39:28;;;;;;;24.35;6.60;;;15.40;80.80;;;;;;6093450;23;20002;-65
2021/07/04 02:41:54;;;;;;;21.70;6.57;;;15.40;80.70;;;;;;6092684;23;20081;-65
2021/07/04 02:44:21;;;;;;;30.48;6.78;;;15.40;80.80;;;;;;6093575;23;20003;-65
2021/07/04 02:46:47;;;;;;;23.85;5.25;;;15.40;80.80;;;;;;6092504;23;20557;-65
2021/07/04 02:49:14;;;;;;;17.85;5.47;;;15.40;80.70;;;;;;6093400;23;20431;-65
2021/07/04 02:51:41;;;;;;;17.88;6.10;;;15.40;80.70;;;;;;6093453;23;20138;-65
2021/07/04 02:54:07;;;;;;;17.27;4.95;;;15.40;80.70;;;;;;6092727;23;20578;-65
2021/07/04 02:56:34;;;;;;;18.63;7.72;;;15.40;80.60;;;;;;6095376;23;20102;-65
2021/07/04 02:59:00;;;;;;;14.50;5.47;;;15.40;80.60;;;;;;6094275;23;20007;-65
2021/07/04 03:01:27;;;;;;;14.68;5.68;;;15.40;80.50;;;;;;6095274;23;19998;-65
2021/07/04 03:03:53;;;;;;;17.13;5.53;;;15.30;80.40;;;;;;6094198;23;20002;-65
2021/07/04 03:06:20;;;;;;;14.30;5.50;;;15.40;80.40;;;;;;6095582;23;20002;-65
2021/07/04 03:08:46;;;;;;;15.27;5.45;;;15.30;80.40;;;;;;6094578;23;20514;-65
2021/07/04 03:11:13;;;;;;;17.30;6.22;;;15.30;80.40;;;;;;6094485;23;20324;-65
2021/07/04 03:13:39;;;;;;;14.98;4.45;;;15.30;80.40;;;;;;6095424;23;20419;-65
2021/07/04 03:16:06;;;;;;;19.55;6.13;;;15.40;80.40;;;;;;6093771;23;20019;-65
2021/07/04 03:18:33;;;;;;;15.10;5.30;;;15.30;80.30;;;;;;6095116;23;20423;-65
2021/07/04 03:21:00;;;;;;;23.38;5.00;;;15.40;80.40;;;;;;6093785;23;20435;-65
2021/07/04 03:23:26;;;;;;;15.20;5.28;;;15.30;80.30;;;;;;6095003;23;20012;-65
2021/07/04 03:25:54;;;;;;;20.77;6.00;;;15.30;80.40;;;;;;6094445;23;20002;-65
2021/07/04 03:28:21;;;;;;;17.45;5.45;;;15.30;80.40;;;;;;6093116;23;20041;-65
2021/07/04 03:30:48;;;;;;;14.52;4.63;;;15.30;80.40;;;;;;6094781;23;19998;-65
2021/07/04 03:33:14;;;;;;;19.50;6.05;;;15.30;80.50;;;;;;6094073;23;20743;-65
2021/07/04 03:35:41;;;;;;;24.15;6.10;;;15.30;80.40;;;;;;6094895;23;20453;-65
2021/07/04 03:38:08;;;;;;;18.92;6.35;;;15.30;80.40;;;;;;6093968;23;20073;-65
2021/07/04 03:40:34;;;;;;;17.80;5.72;;;15.40;80.60;;;;;;6094905;23;20030;-66
2021/07/04 03:43:00;;;;;;;20.15;6.60;;;15.30;80.50;;;;;;6093663;23;20006;-65
2021/07/04 03:45:27;;;;;;;14.93;6.97;;;15.30;80.50;;;;;;6094862;23;20009;-65
2021/07/04 03:47:53;;;;;;;21.85;4.97;;;15.30;80.40;;;;;;6092966;23;20095;-65
2021/07/04 03:50:20;;;;;;;23.55;6.25;;;15.30;80.40;;;;;;6094242;23;20003;-65
2021/07/04 03:52:48;;;;;;;16.48;4.88;;;15.30;80.40;;;;;;6094845;23;20049;-65
2021/07/04 03:55:15;;;;;;;15.90;5.95;;;15.30;80.40;;;;;;6093328;23;19994;-65
2021/07/04 03:57:41;;;;;;;15.57;5.50;;;15.30;80.40;;;;;;6094630;23;20009;-66
2021/07/04 04:00:10;;;;;;;13.20;4.55;;;15.30;80.30;;;;;;6093809;23;20050;-65
2021/07/04 04:02:36;;;;;;;20.52;5.18;;;15.30;80.30;;;;;;6094651;23;20081;-66
2021/07/04 04:05:03;;;;;;;14.82;5.50;;;15.30;80.30;;;;;;6094203;23;20002;-65
2021/07/04 04:07:30;;;;;;;16.08;6.15;;;15.30;80.30;;;;;;6093797;23;20439;-65
2021/07/04 04:09:57;;;;;;;23.25;6.38;;;15.30;80.20;;;;;;6094521;23;20061;-65
2021/07/04 04:12:23;;;;;;;11.77;3.85;;;15.30;80.00;;;;;;6093692;23;20009;-65
2021/07/04 04:14:51;;;;;;;16.00;4.65;;;15.20;80.00;;;;;;6094715;23;20025;-66
2021/07/04 04:17:17;;;;;;;17.63;5.38;;;15.20;79.80;;;;;;6093213;23;20021;-66
2021/07/04 04:19:44;;;;;;;18.02;5.50;;;15.20;79.80;;;;;;6094809;23;20452;-66
2021/07/04 04:22:11;;;;;;;20.30;5.32;;;15.20;79.70;;;;;;6093791;23;20006;-65
2021/07/04 04:24:37;;;;;;;19.60;5.78;;;15.20;79.60;;;;;;6094673;23;20006;-66
2021/07/04 04:27:04;;;;;;;16.63;5.43;;;15.20;79.50;;;;;;6094637;23;20002;-66
2021/07/04 04:29:31;;;;;;;11.00;4.35;;;15.10;79.30;;;;;;6091630;23;20081;-65
2021/07/04 04:31:57;;;;;;;13.13;3.72;;;15.20;79.30;;;;;;6094651;23;20009;-66
2021/07/04 04:34:24;;;;;;;15.95;4.35;;;15.10;79.30;;;;;;6093360;23;20078;-71
2021/07/04 04:36:50;;;;;;;18.20;6.25;;;15.10;79.20;;;;;;6094292;23;20022;-66
2021/07/04 04:39:20;;;;;;;18.13;5.28;;;15.10;79.30;;;;;;6093117;23;20002;-65
2021/07/04 04:41:47;;;;;;;14.38;6.15;;;15.10;79.30;;;;;;6094140;23;20037;-64
2021/07/04 04:44:14;;;;;;;23.75;5.60;;;15.00;79.30;;;;;;6094020;23;20002;-64
2021/07/04 04:46:41;;;;;;;20.15;4.78;;;15.00;79.40;;;;;;6093332;23;20003;-66
2021/07/04 04:49:08;;;;;;;12.10;5.32;;;15.00;79.50;;;;;;6094885;23;20070;-65
2021/07/04 04:51:35;;;;;;;14.48;5.68;;;15.00;79.50;;;;;;6092836;23;20007;-64
2021/07/04 04:54:01;;;;;;;13.93;4.65;;;15.00;79.50;;;;;;6094263;23;20077;-65
2021/07/04 04:56:28;;;;;;;12.63;3.20;;;15.00;79.50;;;;;;6092871;23;20045;-68
2021/07/04 04:58:54;;;;;;;15.68;5.45;;;15.00;79.50;;;;;;6094087;23;20077;-71
2021/07/04 05:01:21;;;;;;;18.90;8.98;;;15.00;79.50;;;;;;6093629;23;20498;-66
2021/07/04 05:03:47;;;;;;;21.30;9.65;;;15.00;79.50;;;;;;6093379;23;20363;-64
2021/07/04 05:06:14;;;;;;;28.80;13.85;;;15.00;79.50;;;;;;6093421;23;19998;-66
2021/07/04 05:08:40;;;;;;;28.27;14.27;;;15.00;79.50;;;;;;6091126;23;20003;-64
2021/07/04 05:11:09;;;;;;;28.42;14.18;;;15.00;79.40;;;;;;6093161;23;20458;-65
2021/07/04 05:13:36;;;;;;;28.05;16.08;;;15.00;79.40;;;;;;6090509;23;20442;-64
2021/07/04 05:16:03;;;;;;;25.40;15.52;;;14.90;79.40;;;;;;6093516;23;20046;-65
2021/07/04 05:18:30;;;;;;;27.67;13.95;;;15.00;79.40;;;;;;6092315;23;19999;-64
2021/07/04 05:20:57;;;;;;;26.50;13.40;;;14.90;79.40;;;;;;6092885;23;20026;-65
2021/07/04 05:23:23;;;;;;;24.73;11.75;;;15.00;79.40;;;;;;6093404;23;20003;-64
2021/07/04 05:25:50;;;;;;;24.08;13.38;;;14.90;79.30;;;;;;6092242;23;20010;-65
2021/07/04 05:28:17;;;;;;;27.67;15.63;;;15.00;79.30;;;;;;6093362;23;19999;-65
2021/07/04 05:30:44;;;;;;;18.80;12.70;;;14.90;79.20;;;;;;6092025;23;20133;-65
2021/07/04 05:33:10;;;;;;;26.23;11.98;;;14.90;79.20;;;;;;6093517;23;20006;-65
2021/07/04 05:35:39;;;;;;;24.95;9.93;;;14.90;79.00;;;;;;6092790;23;20101;-65
2021/07/04 05:38:06;;;;;;;18.70;8.20;;;14.90;79.00;;;;;;6092922;23;20335;-64
2021/07/04 05:40:33;;;;;;;16.90;8.00;;;14.90;78.90;;;;;;6092884;23;20006;-65
2021/07/04 05:42:59;;;;;;;19.67;7.30;;;14.90;78.80;;;;;;6092351;23;20427;-65
2021/07/04 05:45:26;;;;;;;18.63;7.40;;;14.90;78.70;;;;;;6091612;23;20342;-66
2021/07/04 05:47:53;;;;;;;15.38;5.90;;;14.90;78.70;;;;;;6091450;23;20706;-65
2021/07/04 05:50:19;;;;;;;16.90;5.55;;;14.80;78.60;;;;;;6093138;23;20332;-64
2021/07/04 05:52:46;;;;;;;17.08;5.90;;;14.90;78.80;;;;;;6091919;23;20061;-64
2021/07/04 05:55:14;;;;;;;16.38;4.60;;;14.90;78.80;;;;;;6095648;23;20006;-69
2021/07/04 05:57:40;;;;;;;13.13;4.38;;;14.90;78.90;;;;;;6094540;23;20454;-66
2021/07/04 06:00:09;;;;;;;15.52;4.65;;;14.90;78.90;;;;;;6092854;23;20005;-72
2021/07/04 06:02:35;;;;;;;14.27;5.57;;;14.90;79.00;;;;;;6093570;23;20014;-66
2021/07/04 06:05:02;;;;;;;12.68;5.65;;;14.90;79.00;;;;;;6091167;23;20057;-66
2021/07/04 06:07:29;;;;;;;15.18;4.32;;;14.90;79.10;;;;;;6092293;23;20049;-66
2021/07/04 06:09:55;;;;;;;21.00;6.43;;;14.90;79.20;;;;;;6090257;23;20014;-66
2021/07/04 06:12:22;;;;;;;17.98;6.53;;;14.90;79.30;;;;;;6091831;23;20014;-66
2021/07/04 06:14:48;;;;;;;19.83;5.40;;;14.90;79.30;;;;;;6090928;23;20002;-67
2021/07/04 06:17:14;;;;;;;15.35;5.32;;;14.90;79.40;;;;;;6091127;23;20014;-67
2021/07/04 06:20:06;;;;;;;12.73;4.55;;;14.90;79.50;;;;;;6091918;23;20423;-67
2021/07/04 06:22:35;;;;;;;16.85;6.68;;;14.90;79.50;;;;;;6090318;23;19994;-66
2021/07/04 06:25:03;;;;;;;18.10;5.57;;;14.90;79.50;;;;;;6091619;23;20419;-66
2021/07/04 06:27:30;;;;;;;15.73;5.68;;;14.90;79.50;;;;;;6090526;23;20006;-67
2021/07/04 06:29:56;;;;;;;15.77;5.43;;;14.90;79.50;;;;;;6093194;23;20354;-66
2021/07/04 06:32:23;;;;;;;14.30;5.32;;;14.90;79.70;;;;;;6093646;23;20431;-66
2021/07/04 06:34:49;;;;;;;16.80;5.22;;;14.90;79.70;;;;;;6092821;23;20334;-66
2021/07/04 06:37:16;;;;;;;14.57;6.13;;;14.90;79.80;;;;;;6093177;23;20462;-67
2021/07/04 06:39:42;;;;;;;12.05;4.40;;;14.90;79.80;;;;;;6092277;23;20006;-66
2021/07/04 06:42:48;;;;;;;11.07;4.78;;;14.90;79.90;;;;;;6093701;23;20038;-67
2021/07/04 06:45:54;;;;;;;9.85;4.47;;;14.90;80.00;;;;;;6092653;23;20077;-67
2021/07/04 06:49:00;;;;;;;12.00;3.78;;;15.00;80.10;;;;;;6092382;23;20312;-69
2021/07/04 06:51:28;;;;;;;16.80;6.15;;;15.00;80.20;;;;;;6093579;23;20002;-64
2021/07/04 06:54:34;;;;;;;8.40;3.58;;;15.00;80.30;;;;;;6091785;23;20013;-65
2021/07/04 06:57:28;;;;;;;10.82;3.95;;;15.00;80.40;;;;;;6092582;23;20014;-65
2021/07/04 06:59:57;;;;;;;15.07;5.95;;;15.00;80.60;;;;;;6092665;23;20002;-66
2021/07/04 07:02:25;;;;;;;16.40;6.97;;;15.00;80.80;;;;;;6092476;23;20002;-65
2021/07/04 07:04:52;;;;;;;16.27;7.35;;;15.00;81.10;;;;;;6093317;23;20026;-66
2021/07/04 07:07:20;;;;;;;14.15;6.93;;;15.00;81.20;;;;;;6093420;23;20002;-65
2021/07/04 07:10:26;;;;;;;17.17;7.38;;;15.00;81.40;;;;;;6091926;23;20359;-64
2021/07/04 07:12:58;;;;;;;14.45;6.07;;;15.10;81.70;;;;;;6093399;23;20082;-64
2021/07/04 07:16:04;;;;;;;14.55;5.93;;;15.10;81.80;;;;;;6091940;23;20022;-65
2021/07/04 07:18:30;;;;;;;17.55;6.47;;;15.00;82.00;;;;;;6092517;23;20441;-64
2021/07/04 07:20:57;;;;;;;14.98;6.00;;;15.10;82.20;;;;;;6093293;23;20010;-64
2021/07/04 07:23:24;;;;;;;16.08;4.70;;;15.10;82.30;;;;;;6092682;23;20002;-67
2021/07/04 07:25:51;;;;;;;15.80;7.97;;;15.10;82.40;;;;;;6093291;23;20007;-63
2021/07/04 07:28:18;;;;;;;55.47;41.75;;;15.10;82.50;;;;;;6091873;23;20003;-63
2021/07/04 07:30:44;;;;;;;47.88;31.95;;;15.10;82.50;;;;;;6093236;23;20058;-63
2021/07/04 07:33:11;;;;;;;30.17;18.42;;;15.00;82.70;;;;;;6092874;23;20005;-64
2021/07/04 07:35:37;;;;;;;20.13;13.25;;;15.00;82.70;;;;;;6092391;23;20137;-64
2021/07/04 07:38:04;;;;;;;12.38;7.43;;;15.10;82.70;;;;;;6093137;23;20021;-64
2021/07/04 07:40:34;;;;;;;15.00;10.10;;;15.00;82.40;;;;;;6091505;23;20324;-66
2021/07/04 07:43:02;;;;;;;16.35;9.13;;;15.00;82.00;;;;;;6093024;23;20339;-65
2021/07/04 07:45:29;;;;;;;11.43;7.50;;;15.00;81.80;;;;;;6090091;23;20030;-65
2021/07/04 07:47:56;;;;;;;11.88;4.97;;;15.00;81.50;;;;;;6093165;23;20058;-66
2021/07/04 07:50:22;;;;;;;10.32;5.95;;;15.10;81.40;;;;;;6090869;23;20006;-65
2021/07/04 07:52:49;;;;;;;10.55;6.55;;;15.10;81.40;;;;;;6092920;23;19999;-65
2021/07/04 07:55:15;;;;;;;16.70;9.30;;;15.10;81.30;;;;;;6093217;23;20053;-65
2021/07/04 07:57:42;;;;;;;19.98;10.00;;;15.10;81.30;;;;;;6091887;23;20002;-64
2021/07/04 08:00:12;;;;;;;18.33;8.20;;;15.10;81.40;;;;;;6093173;23;20002;-65
2021/07/04 08:02:39;;;;;;;13.60;7.68;;;15.10;81.50;;;;;;6091823;23;20010;-65
2021/07/04 08:05:06;;;;;;;11.98;6.82;;;15.10;81.60;;;;;;6093466;23;20006;-65
2021/07/04 08:07:32;;;;;;;10.40;5.28;;;15.10;81.80;;;;;;6091719;23;20008;-65
2021/07/04 08:09:59;;;;;;;9.07;4.93;;;15.20;82.00;;;;;;6092631;23;20042;-66
2021/07/04 08:12:26;;;;;;;9.20;4.18;;;15.20;82.10;;;;;;6092632;23;20304;-66
2021/07/04 08:14:52;;;;;;;10.75;4.28;;;15.20;82.20;;;;;;6092004;23;20569;-65
2021/07/04 08:17:19;;;;;;;9.20;4.35;;;15.20;82.30;;;;;;6092873;23;20450;-65
2021/07/04 08:19:45;;;;;;;6.28;3.03;;;15.20;82.30;;;;;;6091596;23;20497;-64
2021/07/04 08:22:12;;;;;;;4.90;2.35;;;15.30;82.40;;;;;;6092655;23;19995;-65
2021/07/04 08:24:38;;;;;;;5.97;2.17;;;15.30;82.50;;;;;;6091400;23;19999;-69
2021/07/04 08:27:06;;;;;;;7.63;2.10;;;15.30;82.60;;;;;;6091030;23;20060;-65
2021/07/04 08:29:32;;;;;;;5.72;1.58;;;15.30;82.70;;;;;;6091932;23;20002;-65
2021/07/04 08:31:59;;;;;;;5.47;1.95;;;15.30;82.70;;;;;;6092380;23;20063;-65
2021/07/04 08:34:26;;;;;;;6.90;1.98;;;15.30;82.70;;;;;;6093312;23;20003;-65
2021/07/04 08:36:52;;;;;;;5.32;1.60;;;15.40;82.80;;;;;;6091272;23;20499;-64
2021/07/04 08:39:19;;;;;;;2.92;1.50;;;15.40;82.90;;;;;;6092469;23;20002;-68
2021/07/04 08:41:45;;;;;;;7.55;1.55;;;15.40;83.00;;;;;;6091469;23;20006;-67
2021/07/04 08:44:12;;;;;;;5.63;2.67;;;15.40;83.00;;;;;;6093332;23;19999;-71
2021/07/04 08:46:40;;;;;;;12.40;3.30;;;15.50;83.00;;;;;;6090011;23;20010;-67
2021/07/04 08:49:07;;;;;;;6.47;3.60;;;15.50;83.00;;;;;;6092467;23;20040;-67
2021/07/04 08:51:34;;;;;;;9.15;4.47;;;15.50;82.80;;;;;;6092286;23;19998;-64
2021/07/04 08:54:00;;;;;;;5.32;2.45;;;15.50;82.60;;;;;;6091046;23;20113;-68
2021/07/04 08:56:27;;;;;;;8.05;5.00;;;15.60;82.50;;;;;;6092239;23;20485;-65
2021/07/04 08:58:53;;;;;;;10.27;5.35;;;15.60;82.30;;;;;;6092439;23;20331;-72
2021/07/04 09:01:23;;;;;;;12.88;6.20;;;15.70;82.20;;;;;;6093425;23;20005;-70
2021/07/04 09:03:51;;;;;;;12.63;6.18;;;15.70;82.10;;;;;;6092904;23;19999;-66
2021/07/04 09:06:41;;;;;;;8.25;5.00;;;15.70;81.90;;;;;;6094106;23;20015;-66
2021/07/04 09:09:15;;;;;;;8.95;4.60;;;15.80;81.70;;;;;;6080120;23;20006;-65
2021/07/04 09:12:00;;;;;;;7.30;3.90;;;15.80;81.40;;;;;;6092763;23;20470;-67
2021/07/04 09:14:40;;;;;;;6.22;2.55;;;15.80;81.00;;;;;;6093980;23;20003;-67
2021/07/04 09:17:11;;;;;;;6.88;2.40;;;15.80;80.50;;;;;;6093121;23;20014;-67
2021/07/04 09:19:42;;;;;;;7.80;2.58;;;15.80;80.30;;;;;;6092730;23;20442;-67
2021/07/04 09:22:11;;;;;;;6.72;2.30;;;15.80;80.20;;;;;;6093589;23;20030;-67
2021/07/04 09:24:43;;;;;;;4.95;2.22;;;15.80;80.10;;;;;;6091259;23;20400;-67
2021/07/04 09:27:15;;;;;;;8.63;2.15;;;15.80;79.70;;;;;;6094131;23;20002;-72
2021/07/04 09:29:51;;;;;;;4.60;1.75;;;15.80;79.40;;;;;;6092636;23;20013;-67
2021/07/04 09:32:27;;;;;;;5.88;2.13;;;15.80;79.10;;;;;;6093941;23;20391;-66
2021/07/04 09:34:57;;;;;;;6.28;1.48;;;15.80;78.70;;;;;;6093863;23;20006;-65
2021/07/04 09:37:38;;;;;;;2.97;1.75;;;15.80;78.10;;;;;;6092603;23;20307;-65
2021/07/04 09:40:25;;;;;;;5.47;1.77;;;15.90;77.70;;;;;;6093770;23;20449;-65
2021/07/04 09:43:07;;;;;;;6.80;1.33;;;15.90;77.10;;;;;;6092928;23;20003;-65
2021/07/04 09:45:53;;;;;;;4.28;1.88;;;16.00;76.80;;;;;;6092928;23;20002;-66
2021/07/04 09:48:29;;;;;;;3.83;1.90;;;16.00;76.50;;;;;;6093158;23;20026;-65
2021/07/04 09:51:15;;;;;;;5.88;2.03;;;16.10;76.30;;;;;;6092224;23;20002;-65
2021/07/04 09:53:49;;;;;;;4.15;1.60;;;16.10;76.00;;;;;;6093378;23;20005;-65
2021/07/04 09:56:16;;;;;;;3.80;1.45;;;16.10;75.80;;;;;;6092892;23;20017;-65
2021/07/04 09:58:48;;;;;;;6.28;1.92;;;16.20;75.60;;;;;;6092401;23;20415;-65
2021/07/04 10:01:36;;;;;;;10.13;2.63;;;16.20;75.50;;;;;;6094095;23;20053;-65
2021/07/04 10:04:05;;;;;;;10.77;2.28;;;16.30;75.40;;;;;;6091860;23;20009;-65
2021/07/04 10:06:50;;;;;;;8.73;2.38;;;16.30;75.20;;;;;;6093510;23;20006;-65
2021/07/04 10:09:18;;;;;;;7.38;2.55;;;16.40;75.10;;;;;;6092713;23;20025;-65
2021/07/04 10:11:46;;;;;;;11.93;2.65;;;16.40;75.10;;;;;;6092296;23;20003;-65
2021/07/04 10:14:12;;;;;;;7.05;2.25;;;16.50;75.00;;;;;;6093126;23;20009;-65
2021/07/04 10:16:43;;;;;;;7.03;2.22;;;16.60;74.70;;;;;;6092116;23;20402;-65
2021/07/04 10:19:19;;;;;;;10.88;2.65;;;16.60;74.40;;;;;;6093514;23;20007;-66
2021/07/04 10:21:48;;;;;;;7.60;2.03;;;16.70;74.20;;;;;;6092432;23;20159;-66
2021/07/04 10:24:14;;;;;;;6.82;2.15;;;16.70;73.90;;;;;;6092689;23;20003;-66
2021/07/04 10:26:42;;;;;;;5.72;1.98;;;16.80;73.50;;;;;;6091172;23;20348;-66
2021/07/04 10:29:11;;;;;;;4.38;1.83;;;16.80;73.30;;;;;;6092336;23;19994;-66
2021/07/04 10:31:38;;;;;;;8.70;2.85;;;16.80;73.50;;;;;;6093055;23;20007;-64
2021/07/04 10:34:14;;;;;;;5.93;1.45;;;16.80;73.90;;;;;;6091753;23;20037;-64
2021/07/04 10:37:01;;;;;;;6.40;1.40;;;16.70;74.40;;;;;;6093035;23;20450;-64
2021/07/04 10:39:30;;;;;;;3.40;1.10;;;16.70;75.10;;;;;;6092365;23;20085;-64
2021/07/04 10:42:02;;;;;;;2.58;1.60;;;16.60;75.60;;;;;;6092324;23;20022;-65
2021/07/04 10:44:44;;;;;;;7.28;2.35;;;16.60;75.90;;;;;;6093246;23;20006;-64
2021/07/04 10:47:37;;;;;;;2.40;1.05;;;16.50;76.10;;;;;;6091796;23;20006;-65
2021/07/04 10:50:08;;;;;;;4.22;1.20;;;16.50;76.50;;;;;;6093007;23;20014;-64
2021/07/04 10:52:35;;;;;;;6.55;1.67;;;16.50;76.90;;;;;;6093283;23;20002;-65
2021/07/04 10:55:04;;;;;;;5.85;1.60;;;16.50;77.40;;;;;;6092656;23;20426;-65
2021/07/04 10:57:53;;;;;;;3.00;1.25;;;16.50;77.90;;;;;;6092595;23;20010;-65
2021/07/04 11:00:22;;;;;;;11.05;2.50;;;16.60;78.20;;;;;;6092078;23;20006;-65
2021/07/04 11:02:50;;;;;;;5.43;1.55;;;16.70;78.30;;;;;;6092965;23;19998;-65
2021/07/04 11:05:35;;;;;;;5.15;1.63;;;16.70;78.20;;;;;;6092354;23;20054;-65
2021/07/04 11:08:09;;;;;;;3.80;2.42;;;16.70;78.10;;;;;;6092069;23;20002;-66
2021/07/04 11:10:38;;;;;;;4.88;1.45;;;16.80;77.90;;;;;;6092654;23;20025;-66
2021/07/04 11:13:08;;;;;;;8.00;2.55;;;16.90;77.50;;;;;;6092099;23;20003;-66
2021/07/04 11:15:37;;;;;;;5.53;1.42;;;16.90;76.90;;;;;;6093260;23;20010;-65
2021/07/04 11:18:06;;;;;;;4.63;1.60;;;17.00;76.30;;;;;;6094138;23;20304;-65
2021/07/04 11:20:44;;;;;;;4.22;1.58;;;17.00;75.70;;;;;;6094450;23;20066;-65
2021/07/04 11:23:25;;;;;;;5.68;2.20;;;17.10;75.10;;;;;;6094917;23;20485;-66
2021/07/04 11:26:11;;;;;;;3.25;1.27;;;17.10;74.60;;;;;;6093817;23;20002;-65
2021/07/04 11:28:46;;;;;;;3.40;1.15;;;17.20;73.90;;;;;;6094666;23;20003;-65
2021/07/04 11:31:21;;;;;;;3.55;1.70;;;17.20;73.30;;;;;;6093985;23;20007;-66
2021/07/04 11:33:48;;;;;;;3.03;1.30;;;17.30;72.80;;;;;;6094114;23;20367;-66
2021/07/04 11:36:19;;;;;;;2.17;1.10;;;17.30;72.20;;;;;;6094498;23;20007;-65
2021/07/04 11:38:59;;;;;;;3.95;1.13;;;17.40;71.30;;;;;;6093160;23;20178;-66
2021/07/04 11:41:38;;;;;;;2.85;1.02;;;17.40;70.60;;;;;;6094161;23;19998;-66
2021/07/04 11:44:06;;;;;;;3.00;0.68;;;17.40;70.60;;;;;;6093478;23;20435;-66
2021/07/04 11:46:39;;;;;;;4.82;1.35;;;17.50;71.40;;;;;;6094021;23;20003;-66
2021/07/04 11:49:11;;;;;;;2.58;0.68;;;17.50;72.00;;;;;;6094683;23;20081;-65
2021/07/04 11:52:01;;;;;;;6.57;1.10;;;17.60;72.50;;;;;;6093286;23;19998;-66
2021/07/04 11:54:32;;;;;;;5.00;1.40;;;17.60;72.50;;;;;;6094717;23;20006;-66
2021/07/04 12:00:06;;;;;;;6.47;1.40;;;17.60;72.50;;;;;;6093805;23;20522;-66
2021/07/04 12:02:35;;;;;;;4.35;1.45;;;17.60;72.50;;;;;;6094605;23;20002;-65
2021/07/04 12:05:15;;;;;;;8.15;1.15;;;17.60;72.40;;;;;;6093417;23;20057;-66
2021/07/04 12:07:41;;;;;;;5.45;1.52;;;17.60;72.40;;;;;;6094800;23;20423;-66
2021/07/04 12:10:09;;;;;;;3.97;1.10;;;17.50;72.20;;;;;;6093741;23;20014;-66
2021/07/04 12:12:37;;;;;;;4.90;1.42;;;17.50;72.30;;;;;;6094063;23;20010;-66
2021/07/04 12:15:08;;;;;;;2.95;1.35;;;17.50;72.40;;;;;;6092956;23;20034;-66
2021/07/04 12:17:42;;;;;;;5.35;1.30;;;17.40;72.40;;;;;;6093157;23;20010;-66
2021/07/04 12:20:25;;;;;;;4.68;1.50;;;17.40;72.60;;;;;;6094865;23;20092;-66
2021/07/04 12:23:03;;;;;;;5.25;1.85;;;17.40;72.70;;;;;;6093393;23;20331;-66
2021/07/04 12:25:34;;;;;;;8.52;1.85;;;17.30;72.50;;;;;;6094354;23;20003;-66
2021/07/04 12:28:02;;;;;;;5.05;1.02;;;17.30;72.40;;;;;;6094146;23;19998;-66
2021/07/04 12:30:42;;;;;;;2.05;1.23;;;17.30;72.20;;;;;;6093279;23;20001;-66
2021/07/04 12:33:14;;;;;;;4.82;1.23;;;17.20;72.00;;;;;;6094372;23;20009;-66
2021/07/04 12:35:45;;;;;;;9.07;1.85;;;17.20;72.00;;;;;;6093007;23;20085;-66
2021/07/04 12:38:16;;;;;;;3.35;1.50;;;17.20;71.90;;;;;;6094252;23;20029;-65
2021/07/04 12:41:08;;;;;;;4.72;2.97;;;17.20;71.80;;;;;;6093334;23;20032;-65
2021/07/04 12:43:36;;;;;;;8.60;3.10;;;17.20;71.70;;;;;;6092472;23;20419;-66
2021/07/04 12:46:28;;;;;;;10.23;2.78;;;17.10;71.70;;;;;;6093845;23;20074;-66
2021/07/04 12:48:57;;;;;;;4.38;2.13;;;17.10;71.90;;;;;;6079801;23;20006;-66
2021/07/04 12:51:38;;;;;;;4.50;2.53;;;17.10;71.90;;;;;;6093386;23;20428;-66
2021/07/04 12:54:32;;;;;;;4.07;2.30;;;17.20;71.90;;;;;;6093530;23;20002;-66
2021/07/04 12:56:59;;;;;;;6.70;2.08;;;17.10;71.70;;;;;;6092483;23;20016;-66
2021/07/04 12:59:33;;;;;;;5.45;1.73;;;17.20;71.60;;;;;;6093580;23;20006;-66